sensor_id;sensor_type;location;lat;lon;timestamp;P1;durP1;ratioP1;P2;durP2;ratioP2
66609;SDS011;53468;48.276;14.416;2023-08-20T09:34:13;13.95;;;11.10;;
66609;SDS011;53468;48.276;14.416;2023-08-20T09:40:26;14.35;;;11.85;;
66609;SDS011;53468;48.276;14.416;2023-08-20T09:45:59;13.40;;;10.85;;
66609;SDS011;53468;48.276;14.416;2023-08-20T09:51:10;11.18;;;10.00;;
66609;SDS011;53468;48.276;14.416;2023-08-20T09:56:24;11.77;;;9.60;;
66609;SDS011;53468;48.276;14.416;2023-08-20T10:01:37;10.80;;;9.47;;
66609;SDS011;53468;48.276;14.416;2023-08-20T10:07:04;10.15;;;8.98;;
66609;SDS011;53468;48.276;14.416;2023-08-20T10:12:12;9.50;;;8.55;;
66609;SDS011;53468;48.276;14.416;2023-08-20T10:17:48;9.13;;;8.13;;
66609;SDS011;53468;48.276;14.416;2023-08-20T10:23:15;11.18;;;9.43;;
66609;SDS011;53468;48.276;14.416;2023-08-20T10:28:47;17.42;;;10.63;;
66609;SDS011;53468;48.276;14.416;2023-08-20T10:34:37;13.18;;;10.23;;
66609;SDS011;53468;48.276;14.416;2023-08-20T10:39:44;10.07;;;8.48;;
66609;SDS011;53468;48.276;14.416;2023-08-20T10:45:00;11.40;;;9.93;;
66609;SDS011;53468;48.276;14.416;2023-08-20T10:50:38;9.13;;;8.20;;
66609;SDS011;53468;48.276;14.416;2023-08-20T10:56:22;9.47;;;8.47;;
66609;SDS011;53468;48.276;14.416;2023-08-20T11:01:26;9.20;;;8.20;;
66609;SDS011;53468;48.276;14.416;2023-08-20T11:12:09;7.88;;;7.07;;
66609;SDS011;53468;48.276;14.416;2023-08-20T11:17:25;7.75;;;6.95;;
66609;SDS011;53468;48.276;14.416;2023-08-20T11:23:04;8.20;;;7.07;;
66609;SDS011;53468;48.276;14.416;2023-08-20T11:28:08;7.93;;;6.90;;
66609;SDS011;53468;48.276;14.416;2023-08-20T11:33:15;7.40;;;6.70;;
66609;SDS011;53468;48.276;14.416;2023-08-20T11:38:36;8.00;;;7.03;;
66609;SDS011;53468;48.276;14.416;2023-08-20T11:43:46;8.40;;;7.35;;
66609;SDS011;53468;48.276;14.416;2023-08-20T11:49:01;9.73;;;8.13;;
66609;SDS011;53468;48.276;14.416;2023-08-20T11:59:26;9.45;;;7.28;;
66609;SDS011;53468;48.276;14.416;2023-08-20T12:04:51;8.77;;;7.95;;
66609;SDS011;53468;48.276;14.416;2023-08-20T12:10:06;8.05;;;7.25;;
66609;SDS011;53468;48.276;14.416;2023-08-20T12:15:30;8.95;;;7.65;;
66609;SDS011;53468;48.276;14.416;2023-08-20T12:20:35;9.75;;;8.05;;
66609;SDS011;53468;48.276;14.416;2023-08-20T12:25:41;11.68;;;8.60;;
66609;SDS011;53468;48.276;14.416;2023-08-20T12:30:44;9.98;;;7.75;;
66609;SDS011;53468;48.276;14.416;2023-08-20T12:35:58;9.70;;;8.60;;
66609;SDS011;53468;48.276;14.416;2023-08-20T12:41:04;8.70;;;7.35;;
66609;SDS011;53468;48.276;14.416;2023-08-20T12:46:10;8.73;;;6.65;;
66609;SDS011;53468;48.276;14.416;2023-08-20T12:51:24;8.63;;;7.32;;
66609;SDS011;53468;48.276;14.416;2023-08-20T12:56:33;6.93;;;6.22;;
66609;SDS011;53468;48.276;14.416;2023-08-20T13:01:42;7.35;;;6.15;;
66609;SDS011;53468;48.276;14.416;2023-08-20T13:07:01;10.60;;;7.55;;
66609;SDS011;53468;48.276;14.416;2023-08-20T13:12:12;9.60;;;7.28;;
66609;SDS011;53468;48.276;14.416;2023-08-20T13:17:16;7.75;;;6.03;;
66609;SDS011;53468;48.276;14.416;2023-08-20T13:22:20;8.23;;;5.05;;
66609;SDS011;53468;48.276;14.416;2023-08-20T13:27:24;6.72;;;4.90;;
66609;SDS011;53468;48.276;14.416;2023-08-20T13:32:26;4.78;;;3.40;;
66609;SDS011;53468;48.276;14.416;2023-08-20T13:37:29;4.60;;;3.60;;
66609;SDS011;53468;48.276;14.416;2023-08-20T13:42:33;5.00;;;3.60;;
66609;SDS011;53468;48.276;14.416;2023-08-20T13:47:35;4.65;;;3.92;;
66609;SDS011;53468;48.276;14.416;2023-08-20T13:52:37;7.07;;;3.70;;
66609;SDS011;53468;48.276;14.416;2023-08-20T13:57:41;6.18;;;4.05;;
66609;SDS011;53468;48.276;14.416;2023-08-20T14:02:43;5.88;;;4.40;;
66609;SDS011;53468;48.276;14.416;2023-08-20T14:07:45;6.05;;;4.07;;
66609;SDS011;53468;48.276;14.416;2023-08-20T14:12:49;5.85;;;4.45;;
66609;SDS011;53468;48.276;14.416;2023-08-20T14:17:51;7.28;;;4.60;;
66609;SDS011;53468;48.276;14.416;2023-08-20T14:22:53;6.47;;;5.07;;
66609;SDS011;53468;48.276;14.416;2023-08-20T14:27:57;7.40;;;5.15;;
66609;SDS011;53468;48.276;14.416;2023-08-20T14:32:59;5.65;;;4.70;;
66609;SDS011;53468;48.276;14.416;2023-08-20T14:38:02;5.72;;;4.72;;
66609;SDS011;53468;48.276;14.416;2023-08-20T14:43:07;6.25;;;4.82;;
66609;SDS011;53468;48.276;14.416;2023-08-20T14:48:09;8.00;;;5.68;;
66609;SDS011;53468;48.276;14.416;2023-08-20T14:53:13;7.38;;;5.75;;
66609;SDS011;53468;48.276;14.416;2023-08-20T14:58:17;8.60;;;5.00;;
66609;SDS011;53468;48.276;14.416;2023-08-20T15:03:19;8.45;;;4.65;;
66609;SDS011;53468;48.276;14.416;2023-08-20T15:08:21;10.70;;;4.65;;
66609;SDS011;53468;48.276;14.416;2023-08-20T15:13:26;5.30;;;4.25;;
66609;SDS011;53468;48.276;14.416;2023-08-20T15:18:28;4.70;;;4.20;;
66609;SDS011;53468;48.276;14.416;2023-08-20T15:23:30;4.35;;;3.65;;
66609;SDS011;53468;48.276;14.416;2023-08-20T15:28:35;7.30;;;3.92;;
66609;SDS011;53468;48.276;14.416;2023-08-20T15:33:37;6.03;;;3.78;;
66609;SDS011;53468;48.276;14.416;2023-08-20T15:38:40;6.00;;;3.63;;
66609;SDS011;53468;48.276;14.416;2023-08-20T15:43:43;5.22;;;3.60;;
66609;SDS011;53468;48.276;14.416;2023-08-20T15:48:47;4.05;;;3.20;;
66609;SDS011;53468;48.276;14.416;2023-08-20T15:53:50;5.25;;;3.97;;
66609;SDS011;53468;48.276;14.416;2023-08-20T15:58:54;4.88;;;3.80;;
66609;SDS011;53468;48.276;14.416;2023-08-20T16:03:56;5.47;;;4.30;;
66609;SDS011;53468;48.276;14.416;2023-08-20T16:08:58;6.05;;;4.10;;
66609;SDS011;53468;48.276;14.416;2023-08-20T16:14:02;4.88;;;4.25;;
66609;SDS011;53468;48.276;14.416;2023-08-20T16:19:04;5.03;;;4.15;;
66609;SDS011;53468;48.276;14.416;2023-08-20T16:24:07;4.85;;;3.67;;
66609;SDS011;53468;48.276;14.416;2023-08-20T16:29:14;6.10;;;4.40;;
66609;SDS011;53468;48.276;14.416;2023-08-20T16:34:16;5.57;;;4.43;;
66609;SDS011;53468;48.276;14.416;2023-08-20T16:39:38;6.63;;;4.53;;
66609;SDS011;53468;48.276;14.416;2023-08-20T16:44:44;6.65;;;4.65;;
66609;SDS011;53468;48.276;14.416;2023-08-20T16:49:47;6.97;;;4.68;;
66609;SDS011;53468;48.276;14.416;2023-08-20T16:54:56;5.97;;;4.40;;
66609;SDS011;53468;48.276;14.416;2023-08-20T17:00:06;4.78;;;4.32;;
66609;SDS011;53468;48.276;14.416;2023-08-20T17:05:11;6.60;;;4.57;;
66609;SDS011;53468;48.276;14.416;2023-08-20T17:10:14;7.57;;;5.05;;
66609;SDS011;53468;48.276;14.416;2023-08-20T17:15:21;5.30;;;4.32;;
66609;SDS011;53468;48.276;14.416;2023-08-20T17:20:26;6.68;;;4.97;;
66609;SDS011;53468;48.276;14.416;2023-08-20T17:25:30;5.50;;;4.57;;
66609;SDS011;53468;48.276;14.416;2023-08-20T17:30:34;6.43;;;5.10;;
66609;SDS011;53468;48.276;14.416;2023-08-20T17:35:36;8.77;;;4.57;;
66609;SDS011;53468;48.276;14.416;2023-08-20T17:40:40;5.40;;;4.57;;
66609;SDS011;53468;48.276;14.416;2023-08-20T17:46:09;5.55;;;4.97;;
66609;SDS011;53468;48.276;14.416;2023-08-20T17:51:17;6.68;;;5.53;;
66609;SDS011;53468;48.276;14.416;2023-08-20T17:56:51;6.65;;;5.15;;
66609;SDS011;53468;48.276;14.416;2023-08-20T18:02:07;6.53;;;5.70;;
66609;SDS011;53468;48.276;14.416;2023-08-20T18:07:12;7.50;;;6.00;;
66609;SDS011;53468;48.276;14.416;2023-08-20T18:12:24;8.50;;;5.38;;
66609;SDS011;53468;48.276;14.416;2023-08-20T18:18:04;5.65;;;5.05;;
66609;SDS011;53468;48.276;14.416;2023-08-20T18:23:26;10.75;;;6.03;;
66609;SDS011;53468;48.276;14.416;2023-08-20T18:28:44;8.63;;;5.72;;
66609;SDS011;53468;48.276;14.416;2023-08-20T18:45:51;6.75;;;6.03;;
66609;SDS011;53468;48.276;14.416;2023-08-20T18:51:01;7.63;;;5.63;;
66609;SDS011;53468;48.276;14.416;2023-08-20T18:56:27;9.35;;;6.18;;
66609;SDS011;53468;48.276;14.416;2023-08-20T19:07:08;7.13;;;6.13;;
66609;SDS011;53468;48.276;14.416;2023-08-20T19:12:13;6.43;;;5.68;;
66609;SDS011;53468;48.276;14.416;2023-08-20T19:17:20;8.38;;;6.28;;
66609;SDS011;53468;48.276;14.416;2023-08-20T19:22:27;7.28;;;6.28;;
66609;SDS011;53468;48.276;14.416;2023-08-20T19:27:38;6.97;;;6.05;;
66609;SDS011;53468;48.276;14.416;2023-08-20T19:33:02;9.23;;;6.43;;
66609;SDS011;53468;48.276;14.416;2023-08-20T19:38:23;8.15;;;6.60;;
66609;SDS011;53468;48.276;14.416;2023-08-20T19:43:27;8.80;;;6.22;;
66609;SDS011;53468;48.276;14.416;2023-08-20T19:48:50;8.10;;;6.40;;
66609;SDS011;53468;48.276;14.416;2023-08-20T19:59:58;9.23;;;5.90;;
66609;SDS011;53468;48.276;14.416;2023-08-20T20:05:07;9.20;;;7.00;;
66609;SDS011;53468;48.276;14.416;2023-08-20T20:10:18;7.32;;;6.35;;
66609;SDS011;53468;48.276;14.416;2023-08-20T20:15:22;10.05;;;6.45;;
66609;SDS011;53468;48.276;14.416;2023-08-20T20:20:31;9.93;;;7.00;;
66609;SDS011;53468;48.276;14.416;2023-08-20T20:26:02;9.77;;;7.32;;
66609;SDS011;53468;48.276;14.416;2023-08-20T20:31:06;10.98;;;6.65;;
66609;SDS011;53468;48.276;14.416;2023-08-20T20:36:13;9.93;;;7.55;;
66609;SDS011;53468;48.276;14.416;2023-08-20T20:41:39;9.95;;;7.05;;
66609;SDS011;53468;48.276;14.416;2023-08-20T20:46:42;10.48;;;7.78;;
66609;SDS011;53468;48.276;14.416;2023-08-20T20:51:45;9.65;;;7.75;;
66609;SDS011;53468;48.276;14.416;2023-08-20T20:56:49;8.85;;;7.57;;
66609;SDS011;53468;48.276;14.416;2023-08-20T21:01:52;10.80;;;8.27;;
66609;SDS011;53468;48.276;14.416;2023-08-20T21:06:55;11.32;;;7.75;;
66609;SDS011;53468;48.276;14.416;2023-08-20T21:11:59;9.63;;;7.50;;
66609;SDS011;53468;48.276;14.416;2023-08-20T21:17:02;10.05;;;8.77;;
66609;SDS011;53468;48.276;14.416;2023-08-20T21:22:13;9.07;;;7.90;;
66609;SDS011;53468;48.276;14.416;2023-08-20T21:27:17;11.27;;;8.25;;
66609;SDS011;53468;48.276;14.416;2023-08-20T21:32:19;10.85;;;8.75;;
66609;SDS011;53468;48.276;14.416;2023-08-20T21:37:24;9.77;;;8.30;;
66609;SDS011;53468;48.276;14.416;2023-08-20T21:42:28;12.63;;;9.23;;
66609;SDS011;53468;48.276;14.416;2023-08-20T21:47:30;12.57;;;9.60;;
66609;SDS011;53468;48.276;14.416;2023-08-20T21:52:32;12.50;;;8.88;;
66609;SDS011;53468;48.276;14.416;2023-08-20T21:57:36;19.17;;;8.68;;
66609;SDS011;53468;48.276;14.416;2023-08-20T22:02:38;12.35;;;8.35;;
66609;SDS011;53468;48.276;14.416;2023-08-20T22:07:42;11.10;;;8.85;;
66609;SDS011;53468;48.276;14.416;2023-08-20T22:12:47;10.65;;;8.40;;
66609;SDS011;53468;48.276;14.416;2023-08-20T22:17:49;11.40;;;9.13;;
66609;SDS011;53468;48.276;14.416;2023-08-20T22:22:51;11.98;;;9.15;;
66609;SDS011;53468;48.276;14.416;2023-08-20T22:27:55;13.70;;;8.90;;
66609;SDS011;53468;48.276;14.416;2023-08-20T22:32:57;13.35;;;9.63;;
66609;SDS011;53468;48.276;14.416;2023-08-20T22:38:00;13.77;;;9.43;;
66609;SDS011;53468;48.276;14.416;2023-08-20T22:43:06;12.40;;;9.50;;
66609;SDS011;53468;48.276;14.416;2023-08-20T22:48:09;10.27;;;9.18;;
66609;SDS011;53468;48.276;14.416;2023-08-20T22:53:11;14.10;;;9.35;;
66609;SDS011;53468;48.276;14.416;2023-08-20T22:58:15;13.45;;;9.10;;
66609;SDS011;53468;48.276;14.416;2023-08-20T23:03:17;15.38;;;9.93;;
66609;SDS011;53468;48.276;14.416;2023-08-20T23:08:19;12.85;;;9.27;;
66609;SDS011;53468;48.276;14.416;2023-08-20T23:13:23;14.57;;;10.32;;
66609;SDS011;53468;48.276;14.416;2023-08-20T23:18:26;12.30;;;10.43;;
66609;SDS011;53468;48.276;14.416;2023-08-20T23:23:28;12.40;;;9.95;;
66609;SDS011;53468;48.276;14.416;2023-08-20T23:28:32;10.20;;;9.13;;
66609;SDS011;53468;48.276;14.416;2023-08-20T23:33:34;11.57;;;9.95;;
66609;SDS011;53468;48.276;14.416;2023-08-20T23:38:37;12.70;;;9.80;;
66609;SDS011;53468;48.276;14.416;2023-08-20T23:43:41;13.20;;;9.07;;
66609;SDS011;53468;48.276;14.416;2023-08-20T23:48:44;12.43;;;9.50;;
66609;SDS011;53468;48.276;14.416;2023-08-20T23:53:47;12.57;;;10.23;;
66609;SDS011;53468;48.276;14.416;2023-08-20T23:58:51;13.93;;;10.10;;
